RYR21AQ LIPE-EPKK
Flight info
| Callsign | RYR21AQ |
|---|---|
| Flight time | N/A |
| Altitude | 39000 |
| Route | LUMAV M859 CHI M167 BASOG DCT ROSKA DCT BABAG DCT BARPI DCT LAPNA DCT GOLVA DCT NIGSI DCT LEDVA DCT NETIR |
| Aircraft | B738/M-SDE3FGILRWY/SB1 |
Departure
| Time | 2026-05-01 14:53 |
|---|---|
| Airport | Bologna Guglielmo Marconi Airport (LIPE) |
Arrival
| Time | N/A |
|---|---|
| Airport | Kraków John Paul II International Airport (EPKK) |
| Time | Latitude | Longitude | Altitude | Speed | Heading |
|---|---|---|---|---|---|
| 2026-05-01 14:37 | 44.53224 | 11.28895 | 125 ft | 0 kts | 206° |
| 2026-05-01 14:46 | 44.53226 | 11.28896 | 122 ft | 3 kts | 207° |
| 2026-05-01 14:46 | 44.53263 | 11.28944 | 122 ft | 4 kts | 264° |
| 2026-05-01 14:46 | 44.53261 | 11.28965 | 121 ft | 0 kts | 296° |
| 2026-05-01 14:49 | 44.53291 | 11.28883 | 124 ft | 11 kts | 297° |
| 2026-05-01 14:49 | 44.53408 | 11.28699 | 123 ft | 15 kts | 298° |
| 2026-05-01 14:50 | 44.53495 | 11.28458 | 123 ft | 17 kts | 296° |
| 2026-05-01 14:50 | 44.53614 | 11.28127 | 124 ft | 16 kts | 297° |
| 2026-05-01 14:51 | 44.53662 | 11.27994 | 124 ft | 15 kts | 297° |
| 2026-05-01 14:51 | 44.53752 | 11.27743 | 124 ft | 14 kts | 295° |
| 2026-05-01 14:52 | 44.53875 | 11.27573 | 123 ft | 13 kts | 358° |
| 2026-05-01 14:52 | 44.53949 | 11.27630 | 122 ft | 12 kts | 51° |
| 2026-05-01 14:52 | 44.53837 | 11.28057 | 127 ft | 69 kts | 116° |
| 2026-05-01 14:53 | 44.53526 | 11.28919 | 123 ft | 127 kts | 116° |
| 2026-05-01 14:53 | 44.53066 | 11.30163 | 360 ft | 153 kts | 116° |
| 2026-05-01 14:53 | 44.52578 | 11.31535 | 821 ft | 162 kts | 105° |
| 2026-05-01 14:53 | 44.52701 | 11.33070 | 1338 ft | 165 kts | 53° |
| 2026-05-01 14:54 | 44.53663 | 11.33914 | 1941 ft | 171 kts | 21° |
| 2026-05-01 14:54 | 44.54837 | 11.34621 | 2352 ft | 192 kts | 26° |
| 2026-05-01 14:54 | 44.56079 | 11.35410 | 2930 ft | 197 kts | 26° |
| 2026-05-01 14:54 | 44.57336 | 11.36245 | 3476 ft | 202 kts | 27° |
| 2026-05-01 14:55 | 44.58578 | 11.37129 | 4171 ft | 200 kts | 29° |
| 2026-05-01 14:55 | 44.59796 | 11.38043 | 4840 ft | 198 kts | 30° |
| 2026-05-01 14:55 | 44.61010 | 11.38981 | 5428 ft | 200 kts | 31° |
| 2026-05-01 14:55 | 44.62229 | 11.39936 | 6015 ft | 200 kts | 31° |
| 2026-05-01 14:56 | 44.63436 | 11.40890 | 6674 ft | 199 kts | 32° |
| 2026-05-01 14:56 | 44.64639 | 11.41846 | 7255 ft | 200 kts | 33° |
| 2026-05-01 14:56 | 44.65793 | 11.43027 | 7471 ft | 218 kts | 41° |
| 2026-05-01 14:56 | 44.67010 | 11.44477 | 7817 ft | 234 kts | 42° |
| 2026-05-01 14:57 | 44.68290 | 11.46020 | 8149 ft | 253 kts | 42° |
| 2026-05-01 14:57 | 44.71004 | 11.49267 | 9736 ft | 258 kts | 41° |
| 2026-05-01 14:57 | 44.72379 | 11.50902 | 10551 ft | 260 kts | 41° |
| 2026-05-01 14:58 | 44.73810 | 11.52601 | 10882 ft | 281 kts | 41° |
| 2026-05-01 14:58 | 44.75365 | 11.54446 | 11192 ft | 300 kts | 41° |
| 2026-05-01 14:58 | 44.76981 | 11.56360 | 11840 ft | 306 kts | 41° |
| 2026-05-01 14:58 | 44.78617 | 11.58296 | 12661 ft | 308 kts | 41° |
| 2026-05-01 14:59 | 44.80261 | 11.60245 | 13483 ft | 311 kts | 41° |
| 2026-05-01 14:59 | 44.81772 | 11.62443 | 14227 ft | 316 kts | 55° |
| 2026-05-01 14:59 | 44.82873 | 11.65138 | 14980 ft | 319 kts | 60° |
| 2026-05-01 14:59 | 44.83932 | 11.67907 | 15692 ft | 323 kts | 60° |
| 2026-05-01 15:00 | 44.86102 | 11.73571 | 17116 ft | 333 kts | 59° |
| 2026-05-01 15:00 | 44.87202 | 11.76416 | 17825 ft | 337 kts | 59° |
| 2026-05-01 15:00 | 44.88350 | 11.79373 | 18531 ft | 342 kts | 59° |
| 2026-05-01 15:01 | 44.89486 | 11.82295 | 19151 ft | 346 kts | 59° |
| 2026-05-01 15:01 | 44.90653 | 11.85295 | 19789 ft | 349 kts | 59° |
| 2026-05-01 15:01 | 44.91828 | 11.88318 | 20433 ft | 352 kts | 59° |
| 2026-05-01 15:01 | 44.93010 | 11.91367 | 21093 ft | 355 kts | 58° |
| 2026-05-01 15:02 | 44.94192 | 11.94427 | 21768 ft | 357 kts | 58° |
| 2026-05-01 15:02 | 44.94982 | 11.96476 | 22163 ft | 359 kts | 58° |
| 2026-05-01 15:02 | 44.96591 | 12.00651 | 22949 ft | 364 kts | 58° |
| 2026-05-01 15:02 | 44.97806 | 12.03810 | 23525 ft | 368 kts | 58° |
| 2026-05-01 15:03 | 44.99031 | 12.07001 | 24063 ft | 371 kts | 58° |
| 2026-05-01 15:03 | 45.00250 | 12.10176 | 24536 ft | 374 kts | 58° |
| 2026-05-01 15:03 | 45.01495 | 12.13425 | 25043 ft | 376 kts | 58° |
| 2026-05-01 15:03 | 45.02745 | 12.16692 | 25509 ft | 379 kts | 58° |
| 2026-05-01 15:04 | 45.04003 | 12.19979 | 25972 ft | 381 kts | 58° |
| 2026-05-01 15:04 | 45.05268 | 12.23291 | 26425 ft | 384 kts | 58° |
| 2026-05-01 15:04 | 45.06545 | 12.26636 | 26865 ft | 387 kts | 58° |
| 2026-05-01 15:04 | 45.07733 | 12.30074 | 27301 ft | 391 kts | 64° |
| 2026-05-01 15:05 | 45.08779 | 12.33651 | 27719 ft | 394 kts | 64° |
| 2026-05-01 15:05 | 45.09808 | 12.37260 | 28190 ft | 397 kts | 64° |
| 2026-05-01 15:05 | 45.10849 | 12.40880 | 28755 ft | 395 kts | 64° |
| 2026-05-01 15:05 | 45.11885 | 12.44449 | 29184 ft | 397 kts | 64° |
| 2026-05-01 15:06 | 45.12959 | 12.48068 | 29508 ft | 400 kts | 62° |
| 2026-05-01 15:06 | 45.14306 | 12.51517 | 29836 ft | 400 kts | 53° |
| 2026-05-01 15:06 | 45.15909 | 12.54744 | 30227 ft | 401 kts | 52° |
| 2026-05-01 15:06 | 45.17535 | 12.57981 | 30566 ft | 403 kts | 52° |
| 2026-05-01 15:07 | 45.19161 | 12.61233 | 30861 ft | 405 kts | 52° |
| 2026-05-01 15:07 | 45.20788 | 12.64515 | 31158 ft | 408 kts | 52° |
| 2026-05-01 15:07 | 45.22417 | 12.67821 | 31451 ft | 409 kts | 52° |
| 2026-05-01 15:07 | 45.24048 | 12.71145 | 31730 ft | 411 kts | 53° |
| 2026-05-01 15:08 | 45.25681 | 12.74482 | 32045 ft | 412 kts | 53° |
| 2026-05-01 15:08 | 45.27312 | 12.77818 | 32446 ft | 411 kts | 53° |
| 2026-05-01 15:08 | 45.28937 | 12.81147 | 32843 ft | 409 kts | 53° |
| 2026-05-01 15:08 | 45.30551 | 12.84473 | 33232 ft | 408 kts | 54° |
| 2026-05-01 15:09 | 45.31949 | 12.87986 | 33689 ft | 409 kts | 63° |
| 2026-05-01 15:09 | 45.32983 | 12.91682 | 34185 ft | 407 kts | 66° |
| 2026-05-01 15:09 | 45.33986 | 12.95437 | 34516 ft | 406 kts | 66° |
| 2026-05-01 15:09 | 45.34999 | 12.99199 | 34736 ft | 408 kts | 65° |
| 2026-05-01 15:10 | 45.36001 | 13.02868 | 34955 ft | 409 kts | 65° |
| 2026-05-01 15:10 | 45.38071 | 13.10379 | 35531 ft | 407 kts | 64° |
| 2026-05-01 15:10 | 45.39324 | 13.13980 | 35762 ft | 405 kts | 56° |
| 2026-05-01 15:11 | 45.40925 | 13.17276 | 35993 ft | 403 kts | 52° |
| 2026-05-01 15:11 | 45.44251 | 13.23751 | 36424 ft | 406 kts | 52° |
| 2026-05-01 15:11 | 45.45909 | 13.27005 | 36698 ft | 405 kts | 52° |
| 2026-05-01 15:12 | 45.47558 | 13.30261 | 36966 ft | 405 kts | 52° |
| 2026-05-01 15:12 | 45.50816 | 13.36738 | 37654 ft | 400 kts | 52° |
| 2026-05-01 15:12 | 45.52429 | 13.39958 | 37984 ft | 399 kts | 52° |
| 2026-05-01 15:13 | 45.57319 | 13.49728 | 38472 ft | 403 kts | 52° |
| 2026-05-01 15:14 | 45.60520 | 13.56175 | 39153 ft | 397 kts | 52° |
| 2026-05-01 15:14 | 45.65308 | 13.65939 | 39291 ft | 404 kts | 52° |
| 2026-05-01 15:15 | 45.71763 | 13.79156 | 39310 ft | 409 kts | 52° |
| 2026-05-01 15:16 | 45.78211 | 13.92419 | 39290 ft | 400 kts | 52° |
| 2026-05-01 15:18 | 45.86033 | 14.08580 | 39300 ft | 396 kts | 52° |
| 2026-05-01 15:19 | 45.92318 | 14.21632 | 39302 ft | 399 kts | 52° |
| 2026-05-01 15:19 | 45.97035 | 14.31470 | 39301 ft | 402 kts | 52° |
| 2026-05-01 15:20 | 46.01804 | 14.41451 | 39319 ft | 405 kts | 53° |
| 2026-05-01 15:21 | 46.04998 | 14.48154 | 39308 ft | 407 kts | 53° |
| 2026-05-01 15:21 | 46.08200 | 14.54894 | 39296 ft | 407 kts | 53° |
| 2026-05-01 15:22 | 46.12963 | 14.64948 | 39289 ft | 406 kts | 53° |
| 2026-05-01 15:22 | 46.16140 | 14.71672 | 39297 ft | 405 kts | 53° |
| 2026-05-01 15:23 | 46.19304 | 14.78386 | 39298 ft | 404 kts | 53° |
| 2026-05-01 15:23 | 46.22452 | 14.85083 | 39301 ft | 402 kts | 53° |
| 2026-05-01 15:24 | 46.25585 | 14.91763 | 39306 ft | 401 kts | 53° |
| 2026-05-01 15:24 | 46.28701 | 14.98421 | 39313 ft | 400 kts | 53° |
| 2026-05-01 15:25 | 46.31242 | 15.03864 | 39315 ft | 400 kts | 53° |
| 2026-05-01 15:25 | 46.34866 | 15.11643 | 39314 ft | 400 kts | 53° |
| 2026-05-01 15:26 | 46.37453 | 15.17211 | 39316 ft | 400 kts | 53° |
| 2026-05-01 15:26 | 46.40559 | 15.23910 | 39323 ft | 400 kts | 53° |
| 2026-05-01 15:27 | 46.43658 | 15.30612 | 39317 ft | 400 kts | 53° |
| 2026-05-01 15:28 | 46.48293 | 15.40661 | 39321 ft | 399 kts | 53° |
| 2026-05-01 15:28 | 46.51371 | 15.47319 | 39322 ft | 399 kts | 51° |
| 2026-05-01 15:29 | 46.55276 | 15.52969 | 39325 ft | 396 kts | 37° |
| 2026-05-01 15:29 | 46.57568 | 15.55187 | 39319 ft | 396 kts | 28° |
| 2026-05-01 15:30 | 46.67363 | 15.62504 | 39322 ft | 396 kts | 27° |
| 2026-05-01 15:31 | 46.82568 | 15.71964 | 39325 ft | 397 kts | 22° |
| 2026-05-01 15:32 | 46.92828 | 15.77839 | 39335 ft | 397 kts | 22° |
| 2026-05-01 15:34 | 47.08234 | 15.86791 | 39333 ft | 396 kts | 22° |